createdAt,value
2023-05-23T00:02:08.664Z,100.00
2023-05-23T00:04:36.846Z,100.00
2023-05-23T00:07:04.868Z,100.00
2023-05-23T00:09:32.025Z,100.00
2023-05-23T00:11:59.320Z,100.00
2023-05-23T00:14:26.957Z,100.00
2023-05-23T00:16:55.166Z,100.00
2023-05-23T00:19:22.471Z,100.00
2023-05-23T00:21:49.775Z,100.00
2023-05-23T00:24:20.510Z,100.00
2023-05-23T00:26:47.958Z,100.00
2023-05-23T00:29:16.881Z,100.00
2023-05-23T00:31:47.131Z,100.00
2023-05-23T00:34:17.961Z,100.00
2023-05-23T00:36:47.886Z,100.00
2023-05-23T00:39:19.935Z,100.00
2023-05-23T00:41:52.405Z,100.00
2023-05-23T00:44:21.358Z,100.00
2023-05-23T00:46:55.474Z,100.00
2023-05-23T00:49:23.373Z,100.00
2023-05-23T00:51:52.223Z,100.00
2023-05-23T00:54:28.678Z,100.00
2023-05-23T00:56:56.188Z,100.00
2023-05-23T00:59:26.972Z,100.00
2023-05-23T01:01:58.135Z,100.00
2023-05-23T01:04:27.216Z,100.00
2023-05-23T01:06:57.791Z,100.00
2023-05-23T01:09:27.364Z,100.00
2023-05-23T01:12:25.519Z,100.00
2023-05-23T01:15:09.980Z,100.00
2023-05-23T01:17:55.295Z,100.00
2023-05-23T01:20:28.727Z,100.00
2023-05-23T01:23:01.309Z,100.00
2023-05-23T01:25:50.250Z,100.00
2023-05-23T01:28:21.537Z,100.00
2023-05-23T01:30:52.131Z,100.00
2023-05-23T01:33:22.720Z,100.00
2023-05-23T01:35:50.870Z,100.00
2023-05-23T01:38:18.294Z,100.00
2023-05-23T01:40:45.487Z,100.00
2023-05-23T01:43:12.572Z,100.00
2023-05-23T01:45:40.463Z,100.00
2023-05-23T01:48:09.799Z,100.00
2023-05-23T01:50:37.430Z,100.00
2023-05-23T01:53:05.652Z,100.00
2023-05-23T01:55:33.177Z,100.00
2023-05-23T01:58:00.737Z,100.00
2023-05-23T02:00:28.366Z,100.00
2023-05-23T02:02:55.653Z,100.00
2023-05-23T02:05:22.764Z,100.00
2023-05-23T02:07:50.033Z,100.00
2023-05-23T02:10:17.364Z,100.00
2023-05-23T02:12:45.921Z,100.00
2023-05-23T02:15:13.058Z,100.00
2023-05-23T02:17:41.460Z,100.00
2023-05-23T02:20:10.224Z,100.00
2023-05-23T02:22:38.779Z,100.00
2023-05-23T02:25:06.912Z,100.00
2023-05-23T02:27:33.977Z,100.00
2023-05-23T02:30:01.157Z,100.00
2023-05-23T02:32:28.377Z,100.00
2023-05-23T02:34:57.296Z,100.00
2023-05-23T02:37:24.755Z,100.00
2023-05-23T02:39:51.779Z,100.00
2023-05-23T02:42:18.852Z,100.00
2023-05-23T02:44:45.931Z,100.00
2023-05-23T02:47:13.038Z,100.00
2023-05-23T02:49:40.101Z,100.00
2023-05-23T02:52:07.183Z,100.00
2023-05-23T02:54:34.266Z,100.00
2023-05-23T02:57:01.464Z,100.00
2023-05-23T02:59:28.935Z,100.00
2023-05-23T03:01:56.321Z,100.00
2023-05-23T03:04:23.963Z,100.00
2023-05-23T03:06:54.372Z,100.00
2023-05-23T03:09:21.801Z,100.00
2023-05-23T03:11:48.894Z,100.00
2023-05-23T03:14:16.472Z,100.00
2023-05-23T03:16:43.772Z,100.00
2023-05-23T03:19:11.206Z,100.00
2023-05-23T03:21:38.914Z,100.00
2023-05-23T03:24:06.419Z,100.00
2023-05-23T03:26:33.561Z,100.00
2023-05-23T03:29:00.872Z,100.00
2023-05-23T03:31:27.907Z,100.00
2023-05-23T03:33:55.104Z,100.00
2023-05-23T03:36:25.973Z,100.00
2023-05-23T03:38:53.523Z,100.00
2023-05-23T03:41:21.482Z,100.00
2023-05-23T03:43:48.652Z,100.00
2023-05-23T03:46:16.122Z,100.00
2023-05-23T03:48:43.307Z,100.00
2023-05-23T03:51:10.354Z,100.00
2023-05-23T03:53:37.324Z,100.00
2023-05-23T03:56:04.474Z,100.00
2023-05-23T03:58:31.458Z,100.00
2023-05-23T04:03:28.502Z,100.00
2023-05-23T04:05:57.836Z,100.00
2023-05-23T04:08:25.198Z,100.00
2023-05-23T04:10:52.208Z,100.00
2023-05-23T04:13:19.234Z,100.00
2023-05-23T04:15:48.077Z,100.00
2023-05-23T04:18:15.263Z,100.00
2023-05-23T04:20:42.557Z,100.00
2023-05-23T04:23:09.599Z,100.00
2023-05-23T04:25:36.780Z,100.00
2023-05-23T04:28:05.344Z,100.00
2023-05-23T04:30:33.451Z,100.00
2023-05-23T04:33:00.493Z,100.00
2023-05-23T04:35:28.456Z,100.00
2023-05-23T04:37:58.555Z,100.00
2023-05-23T04:40:25.804Z,100.00
2023-05-23T04:42:52.852Z,100.00
2023-05-23T04:45:20.004Z,100.00
2023-05-23T04:47:47.914Z,100.00
2023-05-23T04:50:15.589Z,100.00
2023-05-23T04:52:42.687Z,100.00
2023-05-23T04:55:10.049Z,100.00
2023-05-23T04:57:37.485Z,100.00
2023-05-23T05:00:10.656Z,100.00
2023-05-23T05:02:39.656Z,100.00
2023-05-23T05:05:07.440Z,100.00
2023-05-23T05:07:35.775Z,100.00
2023-05-23T05:10:03.963Z,100.00
2023-05-23T05:12:31.254Z,100.00
2023-05-23T05:14:58.363Z,100.00
2023-05-23T05:17:25.915Z,100.00
2023-05-23T05:19:53.097Z,100.00
2023-05-23T05:22:20.109Z,100.00
2023-05-23T05:24:47.307Z,100.00
2023-05-23T05:27:14.503Z,100.00
2023-05-23T05:29:42.533Z,100.00
2023-05-23T05:32:09.812Z,100.00
2023-05-23T05:34:37.924Z,100.00
2023-05-23T05:37:05.334Z,100.00
2023-05-23T05:39:32.425Z,100.00
2023-05-23T05:42:01.317Z,100.00
2023-05-23T05:44:28.471Z,100.00
2023-05-23T05:46:55.774Z,100.00
2023-05-23T05:52:26.055Z,100.00
2023-05-23T05:54:53.229Z,100.00
2023-05-23T05:57:20.293Z,100.00
2023-05-23T05:59:47.310Z,100.00
2023-05-23T06:02:14.566Z,100.00
2023-05-23T06:04:41.708Z,100.00
2023-05-23T06:07:08.737Z,100.00
2023-05-23T06:09:36.185Z,100.00
2023-05-23T06:12:03.343Z,100.00
2023-05-23T06:14:30.478Z,100.00
2023-05-23T06:16:57.986Z,100.00
2023-05-23T06:19:25.242Z,100.00
2023-05-23T06:21:53.145Z,100.00
2023-05-23T06:24:20.424Z,100.00
2023-05-23T06:26:50.061Z,100.00
2023-05-23T06:29:17.312Z,100.00
2023-05-23T06:31:44.481Z,100.00
2023-05-23T06:34:11.550Z,100.00
2023-05-23T06:36:38.583Z,100.00
2023-05-23T06:39:05.551Z,100.00
2023-05-23T06:41:32.570Z,100.00
2023-05-23T06:43:59.640Z,100.00
2023-05-23T06:46:26.885Z,100.00
2023-05-23T06:49:06.457Z,100.00
2023-05-23T06:51:33.999Z,100.00
2023-05-23T06:54:01.166Z,100.00
2023-05-23T06:56:28.215Z,100.00
2023-05-23T06:58:55.463Z,100.00
2023-05-23T07:01:22.630Z,100.00
2023-05-23T07:03:49.988Z,100.00
2023-05-23T07:06:17.728Z,100.00
2023-05-23T07:11:13.912Z,100.00
2023-05-23T07:13:41.013Z,100.00
2023-05-23T07:16:08.167Z,100.00
2023-05-23T07:18:38.351Z,100.00
2023-05-23T07:21:06.103Z,100.00
2023-05-23T07:23:36.935Z,100.00
2023-05-23T07:26:04.943Z,100.00
2023-05-23T07:28:33.127Z,100.00
2023-05-23T07:31:00.880Z,100.00
2023-05-23T07:33:28.546Z,100.00
2023-05-23T07:35:55.694Z,100.00
2023-05-23T07:38:22.807Z,100.00
2023-05-23T07:40:58.820Z,100.00
2023-05-23T07:43:30.089Z,100.00
2023-05-23T07:45:57.097Z,100.00
2023-05-23T07:48:24.431Z,100.00
2023-05-23T07:50:55.128Z,100.00
2023-05-23T07:53:25.076Z,100.00
2023-05-23T07:55:52.102Z,100.00
2023-05-23T07:58:19.187Z,100.00
2023-05-23T08:00:46.355Z,100.00
2023-05-23T08:03:13.656Z,100.00
2023-05-23T08:05:40.779Z,100.00
2023-05-23T08:08:07.922Z,100.00
2023-05-23T08:10:35.030Z,100.00
2023-05-23T08:13:06.844Z,100.00
2023-05-23T08:15:34.068Z,100.00
2023-05-23T08:18:01.364Z,100.00
2023-05-23T08:20:32.258Z,100.00
2023-05-23T08:23:03.391Z,100.00
2023-05-23T08:25:30.968Z,100.00
2023-05-23T08:27:59.187Z,100.00
2023-05-23T08:30:28.176Z,100.00
2023-05-23T08:32:56.509Z,100.00
2023-05-23T08:35:24.447Z,100.00
2023-05-23T08:37:52.563Z,100.00
2023-05-23T08:40:22.784Z,100.00
2023-05-23T08:42:51.401Z,100.00
2023-05-23T08:45:19.235Z,100.00
2023-05-23T08:47:47.708Z,100.00
2023-05-23T08:50:18.693Z,100.00
2023-05-23T08:52:50.327Z,100.00
2023-05-23T08:55:18.718Z,100.00
2023-05-23T08:57:46.736Z,100.00
2023-05-23T09:00:15.564Z,100.00
2023-05-23T09:02:46.817Z,100.00
2023-05-23T09:05:14.697Z,100.00
2023-05-23T09:07:45.313Z,100.00
2023-05-23T09:10:13.107Z,100.00
2023-05-23T09:12:40.241Z,100.00
2023-05-23T09:15:09.945Z,100.00
2023-05-23T09:17:40.687Z,100.00
2023-05-23T09:20:17.281Z,100.00
2023-05-23T09:22:48.987Z,100.00
2023-05-23T09:25:16.575Z,100.00
2023-05-23T09:27:47.568Z,100.00
2023-05-23T09:30:16.008Z,100.00
2023-05-23T09:32:44.788Z,100.00
2023-05-23T09:35:14.039Z,100.00
2023-05-23T09:37:48.255Z,100.00
2023-05-23T09:40:16.532Z,100.00
2023-05-23T09:42:48.538Z,100.00
2023-05-23T09:45:17.190Z,100.00
2023-05-23T09:47:54.245Z,100.00
2023-05-23T09:50:22.630Z,100.00
2023-05-23T09:52:51.405Z,100.00
2023-05-23T09:55:18.728Z,100.00
2023-05-23T09:57:51.609Z,100.00
2023-05-23T10:00:20.453Z,100.00
2023-05-23T10:03:13.160Z,100.00
2023-05-23T10:05:43.108Z,100.00
2023-05-23T10:08:39.075Z,99.39
2023-05-23T10:11:15.208Z,98.10
2023-05-23T10:13:45.293Z,96.20
2023-05-23T10:16:25.624Z,93.08
2023-05-23T10:19:03.668Z,89.37
2023-05-23T10:21:48.417Z,89.58
2023-05-23T10:24:17.632Z,89.05
2023-05-23T10:26:45.957Z,85.54
2023-05-23T10:29:13.077Z,84.46
2023-05-23T10:31:41.069Z,84.36
2023-05-23T10:34:27.103Z,80.56
2023-05-23T10:37:11.262Z,79.18
2023-05-23T10:39:44.527Z,79.33
2023-05-23T10:42:43.636Z,77.90
2023-05-23T10:45:22.592Z,78.04
2023-05-23T10:47:53.375Z,76.50
2023-05-23T10:50:37.259Z,77.01
2023-05-23T10:53:06.464Z,76.22
2023-05-23T10:55:36.799Z,76.17
2023-05-23T10:58:15.656Z,76.48
2023-05-23T11:01:06.077Z,75.63
2023-05-23T11:03:52.030Z,74.41
2023-05-23T11:06:43.187Z,72.51
2023-05-23T11:09:12.968Z,72.22
2023-05-23T11:11:52.374Z,71.47
2023-05-23T11:14:46.209Z,68.81
2023-05-23T11:17:13.314Z,68.94
2023-05-23T11:19:56.114Z,68.42
2023-05-23T11:22:30.219Z,67.89
2023-05-23T11:24:59.631Z,67.74
2023-05-23T11:27:34.892Z,66.51
2023-05-23T11:30:13.585Z,65.32
2023-05-23T11:32:43.078Z,65.41
2023-05-23T11:35:11.419Z,65.97
2023-05-23T11:37:39.977Z,65.33
2023-05-23T11:40:27.023Z,65.93
2023-05-23T11:42:55.756Z,64.91
2023-05-23T11:45:24.098Z,64.54
2023-05-23T11:47:51.399Z,63.69
2023-05-23T11:50:20.551Z,62.59
2023-05-23T11:52:51.882Z,62.45
2023-05-23T11:55:23.213Z,61.63
2023-05-23T11:57:51.697Z,61.17
2023-05-23T12:00:19.935Z,60.85
2023-05-23T12:02:50.678Z,61.04
2023-05-23T12:05:18.349Z,61.74
2023-05-23T12:07:49.694Z,60.70
2023-05-23T12:10:17.962Z,60.69
2023-05-23T12:12:45.470Z,60.70
2023-05-23T12:15:13.704Z,60.95
2023-05-23T12:17:47.340Z,61.20
2023-05-23T12:20:14.963Z,60.93
2023-05-23T12:22:42.981Z,61.03
2023-05-23T12:25:13.247Z,60.24
2023-05-23T12:27:44.280Z,61.07
2023-05-23T12:30:16.852Z,60.69
2023-05-23T12:32:46.777Z,60.82
2023-05-23T12:35:16.186Z,61.45
2023-05-23T12:37:46.981Z,61.70
2023-05-23T12:40:16.403Z,61.45
2023-05-23T12:42:52.962Z,60.87
2023-05-23T12:45:36.608Z,59.07
2023-05-23T12:48:05.031Z,59.19
2023-05-23T12:50:32.531Z,59.15
2023-05-23T12:53:00.278Z,59.68
2023-05-23T12:55:27.653Z,59.13
2023-05-23T12:57:57.369Z,59.52
2023-05-23T13:00:24.867Z,58.92
2023-05-23T13:02:52.738Z,59.10
2023-05-23T13:05:21.037Z,58.73
2023-05-23T13:07:48.622Z,58.52
2023-05-23T13:10:16.216Z,58.16
2023-05-23T13:12:43.656Z,57.41
2023-05-23T13:15:11.734Z,56.90
2023-05-23T13:17:39.053Z,56.94
2023-05-23T13:20:07.767Z,57.24
2023-05-23T13:22:35.575Z,56.83
2023-05-23T13:25:02.859Z,56.44
2023-05-23T13:27:30.329Z,55.84
2023-05-23T13:29:57.663Z,55.32
2023-05-23T13:32:24.891Z,55.12
2023-05-23T13:34:53.110Z,54.48
2023-05-23T13:37:20.567Z,54.88
2023-05-23T13:39:49.882Z,54.83
2023-05-23T13:42:18.529Z,54.66
2023-05-23T13:44:45.775Z,54.74
2023-05-23T13:47:14.812Z,54.29
2023-05-23T13:49:43.326Z,54.02
2023-05-23T13:52:11.601Z,53.31
2023-05-23T13:54:38.913Z,53.04
2023-05-23T13:57:06.846Z,52.50
2023-05-23T13:59:34.344Z,52.87
2023-05-23T14:02:01.883Z,53.26
2023-05-23T14:04:29.146Z,53.19
2023-05-23T14:06:56.298Z,53.39
2023-05-23T14:09:24.430Z,53.69
2023-05-23T14:11:52.571Z,54.16
2023-05-23T14:14:20.163Z,54.67
2023-05-23T14:16:47.545Z,54.84
2023-05-23T14:19:15.216Z,54.24
2023-05-23T14:21:44.802Z,54.01
2023-05-23T14:24:12.546Z,53.99
2023-05-23T14:26:40.154Z,53.79
2023-05-23T14:29:08.873Z,54.07
2023-05-23T14:31:36.470Z,54.24
2023-05-23T14:34:04.066Z,54.64
2023-05-23T14:36:31.768Z,54.34
2023-05-23T14:39:01.463Z,54.52
2023-05-23T14:41:29.018Z,54.84
2023-05-23T14:43:56.473Z,54.58
2023-05-23T14:46:23.967Z,54.85
2023-05-23T14:48:51.250Z,54.68
2023-05-23T14:51:35.073Z,54.59
2023-05-23T14:54:11.127Z,53.90
2023-05-23T14:56:38.474Z,53.10
2023-05-23T14:59:06.276Z,52.93
2023-05-23T15:01:33.878Z,52.38
2023-05-23T15:04:01.547Z,52.55
2023-05-23T15:06:28.770Z,52.75
2023-05-23T15:08:56.766Z,52.57
2023-05-23T15:11:26.643Z,51.86
2023-05-23T15:13:54.734Z,51.73
2023-05-23T15:16:23.694Z,51.68
2023-05-23T15:18:51.738Z,51.03
2023-05-23T15:21:21.545Z,50.88
2023-05-23T15:23:49.004Z,49.85
2023-05-23T15:26:16.350Z,49.40
2023-05-23T15:28:43.903Z,49.79
2023-05-23T15:31:12.544Z,49.27
2023-05-23T15:33:40.044Z,49.12
2023-05-23T15:36:08.146Z,49.34
2023-05-23T15:38:35.311Z,49.91
2023-05-23T15:41:03.292Z,49.80
2023-05-23T15:43:31.238Z,49.71
2023-05-23T15:45:58.863Z,49.79
2023-05-23T15:48:25.985Z,49.81
2023-05-23T15:50:55.122Z,49.62
2023-05-23T15:53:22.352Z,49.66
2023-05-23T15:55:49.543Z,49.62
2023-05-23T15:58:17.279Z,49.21
2023-05-23T16:00:44.535Z,49.26
2023-05-23T16:03:11.925Z,49.29
2023-05-23T16:05:39.755Z,48.14
2023-05-23T16:08:07.694Z,47.86
2023-05-23T16:10:34.973Z,46.81
2023-05-23T16:13:03.048Z,46.82
2023-05-23T16:15:30.458Z,46.67
2023-05-23T16:17:57.669Z,46.16
2023-05-23T16:20:25.008Z,46.51
2023-05-23T16:22:53.105Z,46.47
2023-05-23T16:25:20.432Z,46.64
2023-05-23T16:27:47.720Z,46.62
2023-05-23T16:30:15.934Z,46.53
2023-05-23T16:32:43.221Z,45.73
2023-05-23T16:35:30.604Z,45.56
2023-05-23T16:37:57.869Z,45.50
2023-05-23T16:40:25.134Z,45.29
2023-05-23T16:42:52.512Z,44.78
2023-05-23T16:45:21.926Z,44.59
2023-05-23T16:47:53.788Z,44.50
2023-05-23T16:50:21.265Z,43.82
2023-05-23T16:52:48.794Z,43.90
2023-05-23T16:55:16.591Z,43.64
2023-05-23T16:57:44.141Z,43.21
2023-05-23T17:00:12.895Z,42.74
2023-05-23T17:02:40.664Z,41.94
2023-05-23T17:05:08.675Z,41.76
2023-05-23T17:07:35.876Z,41.84
2023-05-23T17:10:04.998Z,42.17
2023-05-23T17:12:34.680Z,42.00
2023-05-23T17:15:01.874Z,41.92
2023-05-23T17:17:29.516Z,42.40
2023-05-23T17:19:57.752Z,42.77
2023-05-23T17:22:24.961Z,42.62
2023-05-23T17:24:52.531Z,42.81
2023-05-23T17:27:21.292Z,43.09
2023-05-23T17:29:51.282Z,42.66
2023-05-23T17:32:21.351Z,42.84
2023-05-23T17:34:49.038Z,42.71
2023-05-23T17:37:16.776Z,42.73
2023-05-23T17:39:44.688Z,42.51
2023-05-23T17:42:12.979Z,42.57
2023-05-23T17:44:40.775Z,42.54
2023-05-23T17:47:08.301Z,42.38
2023-05-23T17:49:37.404Z,42.08
2023-05-23T17:52:08.128Z,42.57
2023-05-23T17:54:38.302Z,43.22
2023-05-23T17:57:06.284Z,43.58
2023-05-23T17:59:33.857Z,44.17
2023-05-23T18:02:05.033Z,44.23
2023-05-23T18:04:32.307Z,44.50
2023-05-23T18:07:02.738Z,44.52
2023-05-23T18:09:31.924Z,44.41
2023-05-23T18:12:00.196Z,44.20
2023-05-23T18:14:28.318Z,43.86
2023-05-23T18:16:56.693Z,43.94
2023-05-23T18:19:24.435Z,44.45
2023-05-23T18:22:00.920Z,44.78
2023-05-23T18:24:28.234Z,45.05
2023-05-23T18:27:02.159Z,45.50
2023-05-23T18:29:30.056Z,45.76
2023-05-23T18:31:57.450Z,45.91
2023-05-23T18:34:26.555Z,46.31
2023-05-23T18:36:55.321Z,46.70
2023-05-23T18:39:28.466Z,47.17
2023-05-23T18:41:57.306Z,47.34
2023-05-23T18:44:25.009Z,47.88
2023-05-23T18:46:53.753Z,48.48
2023-05-23T18:49:21.294Z,48.92
2023-05-23T18:51:57.564Z,49.30
2023-05-23T18:54:28.281Z,49.71
2023-05-23T18:56:59.793Z,49.92
2023-05-23T18:59:39.319Z,50.28
2023-05-23T19:02:30.709Z,50.41
2023-05-23T19:05:02.524Z,50.94
2023-05-23T19:07:35.606Z,51.42
2023-05-23T19:10:11.034Z,51.62
2023-05-23T19:12:58.141Z,52.16
2023-05-23T19:15:38.360Z,52.26
2023-05-23T19:18:11.479Z,52.58
2023-05-23T19:20:46.703Z,52.83
2023-05-23T19:23:25.053Z,53.50
2023-05-23T19:26:11.346Z,53.90
2023-05-23T19:28:46.838Z,54.27
2023-05-23T19:31:14.055Z,54.45
2023-05-23T19:33:47.521Z,54.88
2023-05-23T19:36:14.788Z,55.04
2023-05-23T19:38:42.053Z,55.41
2023-05-23T19:41:11.935Z,55.27
2023-05-23T19:43:39.488Z,55.57
2023-05-23T19:46:07.274Z,55.70
2023-05-23T19:48:34.972Z,56.17
2023-05-23T19:51:02.216Z,56.35
2023-05-23T19:53:29.552Z,56.63
2023-05-23T19:55:57.587Z,56.95
2023-05-23T19:58:24.749Z,57.32
2023-05-23T20:00:56.754Z,57.53
2023-05-23T20:03:29.741Z,57.81
2023-05-23T20:05:57.955Z,58.09
2023-05-23T20:08:26.076Z,58.33
2023-05-23T20:10:53.227Z,58.90
2023-05-23T20:13:20.940Z,58.97
2023-05-23T20:15:49.037Z,59.26
2023-05-23T20:18:17.827Z,59.68
2023-05-23T20:20:47.218Z,59.94
2023-05-23T20:23:15.215Z,60.21
2023-05-23T20:25:43.249Z,60.68
2023-05-23T20:28:13.296Z,60.91
2023-05-23T20:30:41.135Z,61.27
2023-05-23T20:33:09.285Z,61.58
2023-05-23T20:35:37.351Z,61.86
2023-05-23T20:38:04.628Z,62.02
2023-05-23T20:40:33.697Z,62.29
2023-05-23T20:43:05.959Z,62.48
2023-05-23T20:45:33.541Z,62.85
2023-05-23T20:48:03.736Z,63.22
2023-05-23T20:50:32.660Z,63.51
2023-05-23T20:53:02.366Z,64.08
2023-05-23T20:55:35.680Z,64.50
2023-05-23T20:58:03.083Z,64.50
2023-05-23T21:00:30.389Z,64.66
2023-05-23T21:02:57.709Z,65.17
2023-05-23T21:05:25.509Z,65.28
2023-05-23T21:07:53.316Z,65.78
2023-05-23T21:10:20.864Z,66.08
2023-05-23T21:12:50.896Z,66.82
2023-05-23T21:15:19.908Z,67.82
2023-05-23T21:17:47.555Z,67.72
2023-05-23T21:20:16.626Z,68.73
2023-05-23T21:22:43.801Z,68.94
2023-05-23T21:25:12.383Z,69.59
2023-05-23T21:27:39.774Z,70.68
2023-05-23T21:30:08.276Z,71.24
2023-05-23T21:32:36.129Z,72.08
2023-05-23T21:35:03.977Z,73.20
2023-05-23T21:37:31.090Z,74.29
2023-05-23T21:39:58.287Z,74.83
2023-05-23T21:42:25.766Z,75.78
2023-05-23T21:44:53.145Z,77.19
2023-05-23T21:47:21.416Z,77.91
2023-05-23T21:49:48.560Z,80.00
2023-05-23T21:52:15.850Z,81.02
2023-05-23T21:54:43.016Z,81.91
2023-05-23T21:57:10.073Z,83.20
2023-05-23T21:59:37.190Z,84.47
2023-05-23T22:02:04.626Z,85.61
2023-05-23T22:04:32.965Z,86.52
2023-05-23T22:07:00.486Z,87.91
2023-05-23T22:09:27.923Z,89.23
2023-05-23T22:11:55.300Z,90.90
2023-05-23T22:14:22.540Z,91.63
2023-05-23T22:16:50.401Z,93.31
2023-05-23T22:19:21.233Z,93.55
2023-05-23T22:21:48.540Z,94.61
2023-05-23T22:24:15.862Z,95.28
2023-05-23T22:26:43.068Z,96.27
2023-05-23T22:29:10.693Z,97.24
2023-05-23T22:31:38.183Z,98.24
2023-05-23T22:34:05.389Z,99.33
2023-05-23T22:36:33.510Z,100.00
2023-05-23T22:39:02.469Z,100.00
2023-05-23T22:41:29.525Z,100.00
2023-05-23T22:43:57.208Z,100.00
2023-05-23T22:46:24.390Z,100.00
2023-05-23T22:48:52.615Z,100.00
2023-05-23T22:51:19.869Z,100.00
2023-05-23T22:53:47.244Z,100.00
2023-05-23T22:56:15.500Z,100.00
2023-05-23T22:58:42.619Z,100.00
2023-05-23T23:01:09.829Z,100.00
2023-05-23T23:03:37.039Z,100.00
2023-05-23T23:06:09.400Z,100.00
2023-05-23T23:08:37.663Z,100.00
2023-05-23T23:11:04.978Z,100.00
2023-05-23T23:13:32.137Z,100.00
2023-05-23T23:15:59.259Z,100.00
2023-05-23T23:18:27.012Z,100.00
2023-05-23T23:20:57.048Z,100.00
2023-05-23T23:23:24.220Z,100.00
2023-05-23T23:25:52.451Z,100.00
2023-05-23T23:28:20.340Z,100.00
2023-05-23T23:30:47.554Z,100.00
2023-05-23T23:33:15.062Z,100.00
2023-05-23T23:35:45.567Z,100.00
2023-05-23T23:38:12.685Z,100.00
2023-05-23T23:40:39.844Z,100.00
2023-05-23T23:43:06.876Z,100.00
2023-05-23T23:45:33.937Z,100.00
2023-05-23T23:48:01.033Z,100.00
2023-05-23T23:50:28.482Z,100.00
2023-05-23T23:52:57.925Z,100.00
2023-05-23T23:55:25.025Z,100.00
2023-05-23T23:57:52.972Z,100.00
